Time;durP1;ratioP1;P1;durP2;ratioP2;P2;SDS_P1;SDS_P2;PMS_P1;PMS_P2;Temp;Humidity;BMP_temperature;BMP_pressure;BME280_temperature;BME280_humidity;BME280_pressure;Samples;Min_cycle;Max_cycle;Signal;HPM_P1;HPM_P2
2021/09/25 00:00:31;;;;;;;12.43;8.88;;;12.30;70.00;;;;;;4887870;29;20017;-94
2021/09/25 00:06:20;;;;;;;13.93;10.40;;;12.20;70.10;;;;;;4887219;29;20040;-94
2021/09/25 00:12:19;;;;;;;14.05;11.07;;;12.20;70.20;;;;;;4882391;29;20039;-92
2021/09/25 00:18:08;;;;;;;12.93;9.70;;;12.10;70.30;;;;;;4882491;29;20061;-93
2021/09/25 00:23:57;;;;;;;14.00;9.90;;;12.10;70.60;;;;;;4882932;29;20068;-92
2021/09/25 00:29:45;;;;;;;14.98;10.93;;;12.00;70.70;;;;;;4882588;29;20036;-92
2021/09/25 00:35:34;;;;;;;16.05;12.15;;;12.00;70.80;;;;;;4881785;29;20048;-92
2021/09/25 00:41:22;;;;;;;15.85;12.05;;;11.90;70.90;;;;;;4882240;29;20088;-95
2021/09/25 00:47:12;;;;;;;16.40;12.18;;;11.80;71.10;;;;;;4881986;29;20059;-94
2021/09/25 00:56:54;;;;;;;21.70;16.30;;;11.70;71.30;;;;;;4882112;29;20064;-93
2021/09/25 01:02:46;;;;;;;23.13;19.83;;;11.70;71.50;;;;;;4881926;29;20052;-94
2021/09/25 01:08:35;;;;;;;24.95;19.90;;;11.70;71.60;;;;;;4881919;29;20033;-92
2021/09/25 01:14:24;;;;;;;23.88;20.73;;;11.60;71.80;;;;;;4881557;29;20100;-94
2021/09/25 01:20:13;;;;;;;26.65;21.58;;;11.50;71.90;;;;;;4881848;29;20059;-94
2021/09/25 01:26:02;;;;;;;22.00;18.25;;;11.50;71.70;;;;;;4897724;29;20057;-92
2021/09/25 01:31:52;;;;;;;24.73;18.63;;;11.40;71.90;;;;;;4882652;29;20179;-92
2021/09/25 01:37:41;;;;;;;26.35;19.90;;;11.30;72.10;;;;;;4881320;29;20043;-93
2021/09/25 01:43:31;;;;;;;25.85;20.73;;;11.30;72.30;;;;;;4881430;29;20614;-92
2021/09/25 01:49:21;;;;;;;24.05;18.58;;;11.30;72.50;;;;;;4881051;29;20561;-93
2021/09/25 01:59:06;;;;;;;20.95;16.02;;;11.20;72.40;;;;;;4881148;29;20449;-94
2021/09/25 02:04:55;;;;;;;18.73;15.13;;;11.10;72.70;;;;;;4881085;29;20085;-93
2021/09/25 02:10:43;;;;;;;29.27;22.52;;;11.10;73.00;;;;;;4880964;29;20194;-92
2021/09/25 02:16:32;;;;;;;24.60;19.00;;;11.10;73.20;;;;;;4880761;29;20505;-92
2021/09/25 02:22:21;;;;;;;31.52;23.33;;;11.10;73.30;;;;;;4880392;29;20397;-92
2021/09/25 02:28:10;;;;;;;27.23;21.40;;;11.00;73.30;;;;;;4880321;29;20496;-91
2021/09/25 02:33:59;;;;;;;27.30;20.27;;;11.00;73.30;;;;;;4880509;29;20048;-94
2021/09/25 02:39:49;;;;;;;29.08;20.70;;;10.90;73.50;;;;;;4880618;29;20500;-94
2021/09/25 02:45:39;;;;;;;22.13;17.73;;;10.90;73.50;;;;;;4880527;29;20039;-93
2021/09/25 02:51:28;;;;;;;24.63;17.70;;;10.90;73.60;;;;;;4880566;29;20040;-94
2021/09/25 03:01:11;;;;;;;25.88;18.77;;;10.80;73.60;;;;;;4901561;29;20040;-90
2021/09/25 03:06:59;;;;;;;25.85;19.85;;;10.70;73.70;;;;;;4884486;29;20052;-94
2021/09/25 03:12:49;;;;;;;25.27;19.17;;;10.70;73.80;;;;;;4883700;29;20036;-94
2021/09/25 03:18:37;;;;;;;23.63;18.65;;;10.60;73.80;;;;;;4883916;29;20068;-94
2021/09/25 03:24:26;;;;;;;26.02;19.60;;;10.60;73.90;;;;;;4883642;29;20035;-93
2021/09/25 03:30:14;;;;;;;22.85;18.42;;;10.50;73.80;;;;;;4883388;29;20040;-93
2021/09/25 03:36:03;;;;;;;23.13;17.98;;;10.50;74.10;;;;;;4883467;29;20036;-93
2021/09/25 03:41:51;;;;;;;23.63;17.90;;;10.40;74.30;;;;;;4883433;29;20097;-94
2021/09/25 03:47:40;;;;;;;25.30;19.23;;;10.40;74.20;;;;;;4883094;29;20077;-93
2021/09/25 03:53:28;;;;;;;28.30;21.08;;;10.40;74.30;;;;;;4882812;29;20048;-92
2021/09/25 04:03:45;;;;;;;30.27;23.08;;;10.30;74.40;;;;;;4883072;29;20147;-93
2021/09/25 04:09:36;;;;;;;28.05;21.75;;;10.30;74.60;;;;;;4882826;29;20082;-94
2021/09/25 04:15:29;;;;;;;28.48;22.17;;;10.20;74.50;;;;;;4882702;29;20093;-93
2021/09/25 04:21:23;;;;;;;28.02;21.35;;;10.20;74.60;;;;;;4882685;29;20072;-93
2021/09/25 04:27:11;;;;;;;29.33;21.77;;;10.20;74.70;;;;;;4882540;29;20041;-93
2021/09/25 04:33:00;;;;;;;31.17;22.38;;;10.10;74.60;;;;;;4882177;29;20089;-94
2021/09/25 04:38:48;;;;;;;27.52;20.55;;;10.00;74.60;;;;;;4882459;29;20040;-93
2021/09/25 04:44:37;;;;;;;28.98;21.95;;;10.00;74.80;;;;;;4882565;29;20040;-94
2021/09/25 04:50:29;;;;;;;46.30;31.15;;;9.90;74.80;;;;;;4882129;29;20036;-93
2021/09/25 04:56:18;;;;;;;51.72;37.88;;;9.90;75.30;;;;;;4882165;29;20124;-93
2021/09/25 05:06:08;;;;;;;28.98;21.45;;;10.00;75.20;;;;;;4881376;29;20104;-93
2021/09/25 05:11:57;;;;;;;27.42;20.73;;;9.90;75.20;;;;;;4881657;29;20089;-93
2021/09/25 05:17:45;;;;;;;27.25;18.60;;;9.90;75.40;;;;;;4881380;29;20446;-94
2021/09/25 05:23:35;;;;;;;25.95;17.98;;;9.90;75.40;;;;;;4880394;29;20040;-93
2021/09/25 05:29:25;;;;;;;26.20;18.00;;;10.00;75.50;;;;;;4880967;29;20525;-95
2021/09/25 05:35:21;;;;;;;26.05;18.55;;;10.00;75.40;;;;;;4881160;29;20120;-95
2021/09/25 05:41:16;;;;;;;24.58;17.05;;;10.00;75.50;;;;;;4881290;29;20092;-93
2021/09/25 05:47:05;;;;;;;26.08;17.88;;;10.10;75.50;;;;;;4881090;29;20039;-94
2021/09/25 05:52:53;;;;;;;30.20;20.63;;;10.10;75.60;;;;;;4880975;29;20065;-94
2021/09/25 05:58:47;;;;;;;28.33;19.52;;;10.20;75.90;;;;;;4880644;29;20048;-90
2021/09/25 06:36:02;;;;;;;43.65;28.08;;;11.10;76.80;;;;;;4806399;29;20108;-86
2021/09/25 07:13:38;;;;;;;30.08;20.20;;;12.50;77.10;;;;;;5647136;24;20054;-89
2021/09/25 08:22:40;;;;;;;13.73;10.55;;;15.40;77.60;;;;;;4844740;29;21726;-91
2021/09/25 08:28:59;;;;;;;13.25;9.10;;;15.70;77.90;;;;;;4849300;29;20086;-92
2021/09/25 08:41:47;;;;;;;13.77;8.57;;;16.30;77.50;;;;;;4782230;30;20035;-96
2021/09/25 08:47:47;;;;;;;19.92;8.23;;;16.70;77.50;;;;;;4774551;30;20170;-85
2021/09/25 08:53:42;;;;;;;11.10;7.78;;;17.00;77.40;;;;;;4846549;29;20052;-86
2021/09/25 08:59:36;;;;;;;11.32;6.75;;;17.30;77.40;;;;;;4845836;29;20051;-85
2021/09/25 09:05:32;;;;;;;12.48;7.00;;;17.70;77.60;;;;;;4846650;29;20086;-85
2021/09/25 09:11:32;;;;;;;11.00;5.95;;;18.00;76.50;;;;;;4844942;29;20049;-84
2021/09/25 09:17:46;;;;;;;9.63;6.30;;;18.40;77.10;;;;;;4844074;29;20044;-84
2021/09/25 09:34:07;;;;;;;9.90;5.55;;;19.90;76.10;;;;;;4810463;29;20091;-90
2021/09/25 09:40:03;;;;;;;9.45;5.50;;;20.40;75.60;;;;;;4848348;29;20105;-88
2021/09/25 10:26:47;;;;;;;;;;;;;;;;;;;;;
2021/09/25 10:33:31;;;;;;;6.85;3.75;;;28.50;70.70;;;;;;4829985;29;20065;-89
2021/09/25 10:46:38;;;;;;;6.55;3.20;;;31.80;65.20;;;;;;4830482;29;20419;-87
2021/09/25 11:06:56;;;;;;;;;;;;;;;;;;;;;
2021/09/25 11:30:15;;;;;;;6.15;3.47;;;37.40;47.00;;;;;;4850848;29;20032;-91
2021/09/25 11:36:11;;;;;;;5.10;2.92;;;38.00;43.40;;;;;;4862593;29;20053;-90
2021/09/25 11:42:20;;;;;;;4.85;2.80;;;38.50;42.40;;;;;;4851551;29;20498;-92
2021/09/25 11:48:16;;;;;;;5.40;2.90;;;38.80;39.20;;;;;;4851500;29;20090;-92
2021/09/25 12:08:19;;;;;;;6.13;3.03;;;40.50;35.60;;;;;;4743283;30;20067;-88
2021/09/25 12:14:28;;;;;;;;;;;;;;;;;;;;;
2021/09/25 12:38:12;;;;;;;;;;;;;;;;;;;;;
2021/09/25 12:44:10;;;;;;;4.03;2.47;;;41.70;29.60;;;;;;4766702;29;20259;-93
2021/09/25 12:50:28;;;;;;;6.60;3.08;;;42.40;29.10;;;;;;4850304;29;20036;-90
2021/09/25 12:56:30;;;;;;;5.03;2.60;;;43.00;28.10;;;;;;4867607;29;20044;-92
2021/09/25 13:03:14;;;;;;;3.75;2.60;;;43.10;27.30;;;;;;4852467;29;20029;-91
2021/09/25 13:10:13;;;;;;;;;;;;;;;;;;;;;
2021/09/25 13:16:13;;;;;;;4.03;2.58;;;43.30;27.10;;;;;;4851081;29;20053;-91
2021/09/25 13:22:32;;;;;;;3.83;2.38;;;43.80;26.70;;;;;;4847842;29;20045;-91
2021/09/25 13:29:23;;;;;;;;;;;;;;;;;;;;;
2021/09/25 13:32:26;;;;;;;4.82;2.53;;;44.10;26.10;;;;;;4828947;29;20132;-91
2021/09/25 13:58:27;;;;;;;4.55;2.70;;;44.40;25.50;;;;;;4768823;29;20030;-87
2021/09/25 14:25:24;;;;;;;18.88;2.70;;;44.40;24.50;;;;;;4740242;30;20078;-91
2021/09/25 14:31:16;;;;;;;3.88;2.35;;;44.90;24.30;;;;;;4740195;30;20084;-90
2021/09/25 14:37:19;;;;;;;4.53;2.70;;;45.10;24.20;;;;;;4773856;30;20545;-88
2021/09/25 14:44:01;;;;;;;3.60;2.40;;;44.90;23.50;;;;;;4775776;30;20039;-88
2021/09/25 14:50:28;;;;;;;4.25;2.38;;;44.80;23.70;;;;;;4794029;30;20062;-90
2021/09/25 14:56:17;;;;;;;3.13;2.33;;;44.20;23.60;;;;;;4804058;29;20435;-88
2021/09/25 15:02:06;;;;;;;4.82;2.55;;;43.90;23.30;;;;;;4852601;29;20102;-89
2021/09/25 15:07:55;;;;;;;4.25;2.33;;;42.90;23.10;;;;;;4853642;29;20090;-89
2021/09/25 15:13:45;;;;;;;4.47;2.80;;;42.20;23.50;;;;;;4852619;29;20137;-88
2021/09/25 15:19:34;;;;;;;4.85;2.60;;;40.20;23.00;;;;;;4851515;29;20082;-90
2021/09/25 15:25:28;;;;;;;4.75;2.40;;;39.30;23.80;;;;;;4854258;29;20055;-87
2021/09/25 15:31:21;;;;;;;4.90;2.60;;;38.40;24.60;;;;;;4851225;29;20133;-85
2021/09/25 15:44:16;;;;;;;5.45;2.72;;;37.80;24.50;;;;;;4775308;30;20072;-87
2021/09/25 15:50:18;;;;;;;6.03;3.38;;;36.30;24.90;;;;;;4851496;29;20037;-88
2021/09/25 16:57:48;;;;;;;10.20;4.30;;;27.50;33.10;;;;;;6096273;22;5232840;-85
2021/09/25 17:32:30;;;;;;;11.63;5.15;;;24.10;38.30;;;;;;6221879;22;20034;-89
2021/09/25 17:47:48;;;;;;;11.25;6.35;;;23.10;40.70;;;;;;6287314;22;20042;-95
2021/09/25 17:53:38;;;;;;;12.60;7.55;;;22.60;41.50;;;;;;6286204;22;20449;-95
2021/09/25 17:59:28;;;;;;;11.75;6.85;;;22.40;42.70;;;;;;6294383;22;20030;-95
2021/09/25 18:05:18;;;;;;;11.23;6.80;;;22.10;43.20;;;;;;6286191;22;20007;-92
2021/09/25 18:11:07;;;;;;;12.63;7.50;;;21.70;43.70;;;;;;6288843;22;20061;-91
2021/09/25 18:16:57;;;;;;;13.25;8.68;;;21.40;44.50;;;;;;6286757;22;20026;-93
2021/09/25 18:22:48;;;;;;;13.10;8.20;;;21.10;45.40;;;;;;6293912;22;20026;-93
2021/09/25 18:28:37;;;;;;;14.25;8.90;;;21.00;46.20;;;;;;6293235;22;20018;-95
2021/09/25 18:34:28;;;;;;;12.20;8.57;;;20.80;46.90;;;;;;6290042;22;20333;-94
2021/09/25 18:40:18;;;;;;;12.98;8.77;;;20.50;47.70;;;;;;6292238;22;20022;-94
2021/09/25 18:49:45;;;;;;;11.85;8.43;;;20.30;48.70;;;;;;6292140;22;20014;-94
2021/09/25 18:55:35;;;;;;;15.05;8.20;;;20.10;49.40;;;;;;6291296;22;20026;-95
2021/09/25 19:01:25;;;;;;;17.30;8.40;;;19.80;49.90;;;;;;6288731;22;20407;-92
2021/09/25 19:07:14;;;;;;;17.42;9.38;;;19.60;50.60;;;;;;6284524;22;20010;-90
2021/09/25 19:13:04;;;;;;;13.13;9.40;;;19.50;51.20;;;;;;6284921;22;20010;-91
2021/09/25 19:18:52;;;;;;;15.15;9.02;;;19.30;51.90;;;;;;6284103;22;20488;-89
2021/09/25 19:24:45;;;;;;;14.32;10.32;;;19.10;52.50;;;;;;6284846;22;20126;-88
2021/09/25 19:30:33;;;;;;;21.67;11.45;;;19.00;52.90;;;;;;6285110;22;20449;-89
2021/09/25 19:36:24;;;;;;;15.48;10.90;;;18.80;53.70;;;;;;6284749;22;20026;-89
2021/09/25 19:42:14;;;;;;;22.95;10.45;;;18.70;54.30;;;;;;6286899;22;20011;-89
2021/09/25 19:51:51;;;;;;;14.60;9.13;;;18.60;54.90;;;;;;6288521;22;20120;-89
2021/09/25 19:57:44;;;;;;;16.80;11.25;;;18.50;55.70;;;;;;6284132;22;20130;-89
2021/09/25 20:03:33;;;;;;;23.10;11.38;;;18.50;56.30;;;;;;6281707;22;20015;-87
2021/09/25 20:09:24;;;;;;;16.65;11.23;;;18.40;56.60;;;;;;6281493;22;20520;-89
2021/09/25 20:15:14;;;;;;;17.90;11.27;;;18.40;57.00;;;;;;6284371;22;20095;-93
2021/09/25 20:21:04;;;;;;;18.13;12.05;;;18.30;57.50;;;;;;6281406;22;20006;-85
2021/09/25 20:26:53;;;;;;;19.40;11.95;;;18.20;58.00;;;;;;6278938;22;20010;-88
2021/09/25 20:32:43;;;;;;;18.98;11.98;;;18.20;58.40;;;;;;6277025;22;20563;-87
2021/09/25 20:38:32;;;;;;;18.90;12.57;;;18.20;58.90;;;;;;6276937;22;20010;-88
2021/09/25 20:44:22;;;;;;;18.33;11.65;;;18.10;59.20;;;;;;6277079;22;20099;-92
2021/09/25 20:54:07;;;;;;;18.88;11.23;;;18.00;59.60;;;;;;6277211;22;20333;-90
2021/09/25 20:59:55;;;;;;;16.23;10.77;;;17.90;59.90;;;;;;6276906;22;20457;-89
2021/09/25 21:05:44;;;;;;;17.52;10.27;;;17.80;60.30;;;;;;6278767;22;20065;-89
2021/09/25 21:11:34;;;;;;;19.45;12.80;;;17.80;60.60;;;;;;6279192;22;20061;-89
2021/09/25 21:17:22;;;;;;;17.13;11.60;;;17.60;61.00;;;;;;6278696;22;20023;-89
2021/09/25 21:23:11;;;;;;;13.35;9.73;;;17.60;61.60;;;;;;6278719;22;20444;-89
2021/09/25 21:28:59;;;;;;;19.38;12.00;;;17.60;61.90;;;;;;6278654;22;20499;-89
2021/09/25 21:34:49;;;;;;;22.55;16.73;;;17.50;62.20;;;;;;6278705;22;20019;-90
2021/09/25 21:40:39;;;;;;;20.95;14.23;;;17.40;62.40;;;;;;6278758;22;20494;-90
2021/09/25 21:46:30;;;;;;;13.88;9.63;;;17.40;62.70;;;;;;6279005;22;20015;-90
2021/09/25 21:56:14;;;;;;;17.50;11.60;;;17.20;63.00;;;;;;6278696;22;20115;-90
2021/09/25 22:02:07;;;;;;;21.45;16.27;;;17.20;63.50;;;;;;6279365;22;20321;-89
2021/09/25 22:07:59;;;;;;;24.40;17.67;;;17.10;63.90;;;;;;6278888;22;20007;-91
2021/09/25 22:13:49;;;;;;;22.58;16.33;;;17.10;64.40;;;;;;6278447;22;20451;-90
2021/09/25 22:19:38;;;;;;;17.15;13.40;;;17.20;64.70;;;;;;6278465;22;20341;-89
2021/09/25 22:25:27;;;;;;;19.98;12.40;;;17.20;65.10;;;;;;6278446;22;20007;-89
2021/09/25 22:31:17;;;;;;;15.60;10.85;;;17.30;65.30;;;;;;6278525;22;20067;-89
2021/09/25 22:37:14;;;;;;;14.38;9.82;;;17.30;65.50;;;;;;6279750;22;20352;-87
2021/09/25 22:43:04;;;;;;;13.48;9.25;;;17.30;65.60;;;;;;6278195;22;20023;-88
2021/09/25 22:48:55;;;;;;;14.90;9.88;;;17.30;65.60;;;;;;6277859;22;20034;-87
2021/09/25 22:58:47;;;;;;;11.98;8.88;;;17.20;65.90;;;;;;6277731;22;20022;-89
2021/09/25 23:04:35;;;;;;;12.70;8.65;;;17.20;66.20;;;;;;6277897;22;20010;-88
2021/09/25 23:10:24;;;;;;;13.93;8.95;;;17.20;66.40;;;;;;6277747;22;20853;-89
2021/09/25 23:16:12;;;;;;;14.63;9.00;;;17.20;66.80;;;;;;6277706;22;20049;-88
2021/09/25 23:22:00;;;;;;;12.40;8.10;;;17.20;67.10;;;;;;6277554;22;20322;-90
2021/09/25 23:27:53;;;;;;;11.38;7.93;;;17.20;67.20;;;;;;6277408;22;20027;-88
2021/09/25 23:33:41;;;;;;;11.70;8.48;;;17.20;67.50;;;;;;6277429;22;20073;-88
2021/09/25 23:39:32;;;;;;;11.13;8.23;;;17.20;67.50;;;;;;6277499;22;20338;-89
2021/09/25 23:45:20;;;;;;;13.18;8.35;;;17.20;67.70;;;;;;6277568;22;20007;-89
2021/09/25 23:51:10;;;;;;;13.25;8.55;;;17.10;67.80;;;;;;6278014;22;20014;-89
